Time;durP1;ratioP1;P1;durP2;ratioP2;P2;SDS_P1;SDS_P2;PMS_P1;PMS_P2;Temp;Humidity;BMP_temperature;BMP_pressure;BME280_temperature;BME280_humidity;BME280_pressure;Samples;Min_cycle;Max_cycle;Signal;HPM_P1;HPM_P2
2022/08/27 00:02:07;;;;;;;16.60;4.55;;;15.40;99.90;;;;;;4954800;29;20040;-71
2022/08/27 00:04:33;;;;;;;17.98;4.38;;;15.40;99.90;;;;;;4955198;28;20447;-72
2022/08/27 00:07:00;;;;;;;20.30;4.70;;;15.30;99.90;;;;;;4955771;29;20423;-81
2022/08/27 00:09:26;;;;;;;12.18;4.03;;;15.30;99.90;;;;;;4954942;29;20047;-71
2022/08/27 00:11:52;;;;;;;17.25;4.63;;;15.30;99.90;;;;;;4923367;29;20078;-70
2022/08/27 00:14:17;;;;;;;15.52;4.63;;;15.30;99.90;;;;;;4954059;29;20055;-71
2022/08/27 00:16:43;;;;;;;15.30;3.92;;;15.30;99.90;;;;;;4938969;28;20363;-71
2022/08/27 00:19:10;;;;;;;14.73;4.20;;;15.20;99.90;;;;;;4955547;29;20058;-70
2022/08/27 00:21:36;;;;;;;15.02;4.40;;;15.30;99.90;;;;;;4955787;29;20204;-72
2022/08/27 00:24:02;;;;;;;19.00;4.35;;;15.30;99.90;;;;;;4922288;29;20047;-78
2022/08/27 00:26:28;;;;;;;21.20;4.10;;;15.40;99.90;;;;;;4934603;29;20122;-71
2022/08/27 00:28:53;;;;;;;16.83;4.35;;;15.40;99.90;;;;;;4936967;29;20506;-71
2022/08/27 00:31:19;;;;;;;12.52;4.10;;;15.40;99.90;;;;;;4954830;29;20047;-71
2022/08/27 00:33:45;;;;;;;16.20;4.20;;;15.50;99.90;;;;;;4954915;29;20054;-70
2022/08/27 00:36:11;;;;;;;13.65;3.92;;;15.50;99.90;;;;;;4920869;29;20054;-71
2022/08/27 00:38:39;;;;;;;15.23;4.40;;;15.50;99.90;;;;;;4937349;29;20146;-71
2022/08/27 00:41:08;;;;;;;11.30;4.47;;;15.50;99.90;;;;;;4920141;29;20047;-71
2022/08/27 00:43:48;;;;;;;12.90;4.30;;;15.50;99.90;;;;;;4936809;29;20043;-73
2022/08/27 00:46:20;;;;;;;12.15;3.85;;;15.50;99.90;;;;;;4933560;29;20043;-73
2022/08/27 00:48:47;;;;;;;14.93;3.90;;;15.50;99.90;;;;;;4918858;29;20070;-71
2022/08/27 00:51:12;;;;;;;11.73;3.60;;;15.50;99.90;;;;;;4935007;29;20058;-72
2022/08/27 00:53:39;;;;;;;16.27;4.38;;;15.50;99.90;;;;;;4935049;29;20043;-71
2022/08/27 00:56:11;;;;;;;11.02;3.88;;;15.60;99.90;;;;;;4920554;28;20051;-74
2022/08/27 00:58:41;;;;;;;12.65;3.42;;;15.60;99.90;;;;;;4937016;29;20142;-70
2022/08/27 01:01:09;;;;;;;14.85;3.83;;;15.60;99.90;;;;;;4920478;29;20119;-71
2022/08/27 01:03:35;;;;;;;12.50;4.03;;;15.60;99.90;;;;;;4936808;29;20093;-71
2022/08/27 01:06:04;;;;;;;20.37;4.63;;;15.60;99.90;;;;;;4936963;29;20039;-72
2022/08/27 01:08:35;;;;;;;18.00;4.32;;;15.60;99.90;;;;;;4920291;29;20130;-70
2022/08/27 01:11:01;;;;;;;16.13;4.68;;;15.50;99.90;;;;;;4921594;29;20058;-70
2022/08/27 01:13:30;;;;;;;18.23;4.20;;;15.50;99.90;;;;;;4935741;29;20090;-70
2022/08/27 01:15:57;;;;;;;14.30;4.43;;;15.50;99.90;;;;;;4953459;29;20086;-71
2022/08/27 01:18:25;;;;;;;13.40;4.38;;;15.50;99.90;;;;;;4951097;28;20047;-72
2022/08/27 01:21:23;;;;;;;14.68;4.53;;;15.50;99.90;;;;;;4954002;29;20063;-71
2022/08/27 01:24:01;;;;;;;22.40;4.82;;;15.50;99.90;;;;;;4953279;29;20051;-70
2022/08/27 01:26:29;;;;;;;19.20;4.70;;;15.40;99.90;;;;;;4953406;29;20872;-73
2022/08/27 01:28:54;;;;;;;15.38;4.63;;;15.40;99.90;;;;;;4951894;28;20185;-72
2022/08/27 01:31:20;;;;;;;18.88;4.88;;;15.40;99.90;;;;;;4919409;29;20082;-70
2022/08/27 01:34:12;;;;;;;13.77;4.30;;;15.40;99.90;;;;;;4953498;29;20090;-70
2022/08/27 01:36:38;;;;;;;15.75;5.20;;;15.40;99.90;;;;;;4950990;29;20101;-70
2022/08/27 01:39:03;;;;;;;20.27;5.38;;;15.30;99.90;;;;;;4951664;29;20410;-73
2022/08/27 01:41:29;;;;;;;16.98;5.22;;;15.30;99.90;;;;;;4935920;29;20066;-74
2022/08/27 01:43:55;;;;;;;13.43;5.57;;;15.30;99.90;;;;;;4951802;28;20054;-71
2022/08/27 01:46:23;;;;;;;12.68;4.88;;;15.30;99.90;;;;;;4934821;29;21617;-72
2022/08/27 01:48:49;;;;;;;19.45;6.18;;;15.30;99.90;;;;;;4934569;28;20079;-71
2022/08/27 01:51:14;;;;;;;18.80;5.65;;;15.30;99.90;;;;;;4951956;28;20086;-72
2022/08/27 01:53:40;;;;;;;15.07;6.20;;;15.30;99.90;;;;;;4935229;29;20050;-73
2022/08/27 01:56:06;;;;;;;18.30;6.15;;;15.30;99.90;;;;;;4953179;29;20395;-71
2022/08/27 01:58:32;;;;;;;17.58;5.35;;;15.30;99.90;;;;;;4950553;29;20063;-72
2022/08/27 02:01:04;;;;;;;12.57;5.60;;;15.30;99.90;;;;;;4951197;29;20051;-72
2022/08/27 02:03:30;;;;;;;17.00;6.05;;;15.30;99.90;;;;;;4952282;29;20142;-71
2022/08/27 02:05:56;;;;;;;17.38;5.47;;;15.20;99.90;;;;;;4935821;29;20058;-71
2022/08/27 02:08:22;;;;;;;17.03;5.90;;;15.20;99.90;;;;;;4935002;29;20361;-71
2022/08/27 02:10:49;;;;;;;16.25;5.53;;;15.20;99.90;;;;;;4952411;29;20134;-73
2022/08/27 02:13:15;;;;;;;15.40;5.72;;;15.20;99.90;;;;;;4951339;29;20122;-73
2022/08/27 02:15:42;;;;;;;17.52;5.38;;;15.20;99.90;;;;;;4935550;29;20106;-71
2022/08/27 02:18:10;;;;;;;18.42;5.20;;;15.30;99.90;;;;;;4952457;29;20385;-77
2022/08/27 02:20:36;;;;;;;16.27;5.07;;;15.20;99.90;;;;;;4951945;28;20051;-73
2022/08/27 02:23:03;;;;;;;19.92;5.45;;;15.20;99.90;;;;;;4935371;29;20093;-71
2022/08/27 02:25:29;;;;;;;15.50;5.35;;;15.20;99.90;;;;;;4935224;29;20113;-72
2022/08/27 02:27:58;;;;;;;15.90;6.10;;;15.20;99.90;;;;;;4951651;29;20126;-70
2022/08/27 02:30:25;;;;;;;13.23;5.43;;;15.20;99.90;;;;;;4952652;29;20186;-73
2022/08/27 02:32:51;;;;;;;15.98;5.60;;;15.20;99.90;;;;;;4943428;29;20154;-73
2022/08/27 02:35:20;;;;;;;18.40;5.35;;;15.20;99.90;;;;;;4951461;29;20507;-73
2022/08/27 02:37:46;;;;;;;23.40;6.45;;;15.20;99.90;;;;;;4952369;29;20134;-79
2022/08/27 02:40:17;;;;;;;16.98;7.05;;;15.20;99.90;;;;;;4935769;28;20051;-80
2022/08/27 02:42:43;;;;;;;16.42;5.95;;;15.20;99.90;;;;;;4954557;29;20055;-72
2022/08/27 02:45:10;;;;;;;16.80;7.03;;;15.10;99.90;;;;;;4954833;28;20110;-72
2022/08/27 02:47:36;;;;;;;;;;;15.10;99.90;;;;;;4955874;28;20110;-73
2022/08/27 02:50:03;;;;;;;15.43;6.20;;;15.10;99.90;;;;;;4956476;29;20363;-71
2022/08/27 02:52:29;;;;;;;19.05;6.00;;;15.20;99.90;;;;;;4955740;29;20055;-70
2022/08/27 02:54:56;;;;;;;17.08;5.72;;;15.20;99.90;;;;;;4955976;29;20045;-72
2022/08/27 02:57:22;;;;;;;16.25;5.30;;;15.20;99.90;;;;;;4938859;29;20438;-72
2022/08/27 02:59:49;;;;;;;17.20;5.95;;;15.20;99.90;;;;;;4956000;29;20047;-72
2022/08/27 03:02:16;;;;;;;20.85;6.10;;;15.20;99.90;;;;;;4955843;28;20039;-80
2022/08/27 03:04:42;;;;;;;17.13;6.63;;;15.10;99.90;;;;;;4955707;29;20047;-75
2022/08/27 03:07:08;;;;;;;18.85;6.53;;;15.10;99.90;;;;;;4956408;29;20105;-73
2022/08/27 03:09:33;;;;;;;15.40;5.95;;;15.10;99.90;;;;;;4938158;29;20392;-73
2022/08/27 03:12:00;;;;;;;17.17;6.03;;;15.10;99.90;;;;;;4954960;29;20055;-71
2022/08/27 03:14:27;;;;;;;18.45;6.38;;;15.10;99.90;;;;;;4954171;28;20122;-70
2022/08/27 03:16:54;;;;;;;19.08;5.70;;;15.00;99.90;;;;;;4954971;29;20054;-72
2022/08/27 03:19:20;;;;;;;14.02;5.40;;;15.00;99.90;;;;;;4955027;29;20260;-76
2022/08/27 03:21:47;;;;;;;17.00;6.57;;;15.10;99.90;;;;;;4955900;29;20500;-72
2022/08/27 03:24:13;;;;;;;;;;;15.10;99.90;;;;;;4954795;29;20309;-72
2022/08/27 03:26:39;;;;;;;15.40;4.97;;;15.10;99.90;;;;;;4955417;29;20161;-71
2022/08/27 03:29:06;;;;;;;16.15;4.85;;;15.10;99.90;;;;;;4937351;29;20306;-73
2022/08/27 03:31:32;;;;;;;15.75;5.50;;;15.10;99.90;;;;;;4938216;29;20058;-71
2022/08/27 03:34:01;;;;;;;18.38;6.05;;;15.00;99.90;;;;;;4938031;29;20047;-71
2022/08/27 03:36:29;;;;;;;17.10;5.18;;;15.00;99.90;;;;;;4955007;29;20053;-70
2022/08/27 03:38:56;;;;;;;18.30;5.25;;;15.00;99.90;;;;;;4936937;29;20535;-71
2022/08/27 03:41:22;;;;;;;;;;;15.00;99.90;;;;;;4955425;29;20428;-73
2022/08/27 03:43:48;;;;;;;17.38;4.95;;;14.90;99.90;;;;;;4937247;29;19922;-72
2022/08/27 03:46:15;;;;;;;11.13;4.80;;;14.90;99.90;;;;;;4953510;28;20142;-72
2022/08/27 03:48:40;;;;;;;12.50;5.47;;;14.90;99.90;;;;;;4954197;29;20047;-72
2022/08/27 03:51:12;;;;;;;15.63;5.18;;;14.90;99.90;;;;;;4955346;29;20051;-77
2022/08/27 03:53:41;;;;;;;15.57;5.10;;;14.90;99.90;;;;;;4953952;28;20411;-71
2022/08/27 03:56:07;;;;;;;16.95;5.05;;;14.80;99.90;;;;;;4937135;29;20090;-72
2022/08/27 03:58:34;;;;;;;12.70;5.47;;;14.80;99.90;;;;;;4953407;29;20066;-72
2022/08/27 04:01:00;;;;;;;15.07;5.60;;;14.70;99.90;;;;;;4938018;29;20102;-71
2022/08/27 04:03:27;;;;;;;17.42;5.85;;;14.60;99.90;;;;;;4954004;29;20079;-71
2022/08/27 04:05:54;;;;;;;18.25;6.13;;;14.50;99.90;;;;;;4937060;28;20098;-73
2022/08/27 04:08:21;;;;;;;14.55;5.72;;;14.50;99.90;;;;;;4936430;29;20043;-72
2022/08/27 04:10:47;;;;;;;;;;;14.50;99.90;;;;;;4954923;29;20142;-71
2022/08/27 04:13:14;;;;;;;15.55;5.35;;;14.40;99.90;;;;;;4937034;29;19922;-78
2022/08/27 04:15:44;;;;;;;14.85;5.07;;;14.40;99.90;;;;;;4937111;29;20491;-72
2022/08/27 04:18:11;;;;;;;14.70;5.30;;;14.40;99.90;;;;;;4936349;29;20101;-73
2022/08/27 04:20:37;;;;;;;16.40;5.70;;;14.30;99.90;;;;;;4954379;29;20047;-72
2022/08/27 04:23:04;;;;;;;15.75;6.05;;;14.20;99.90;;;;;;4936692;29;20549;-72
2022/08/27 04:25:30;;;;;;;17.30;5.85;;;14.20;99.90;;;;;;4936929;29;20054;-74
2022/08/27 04:27:56;;;;;;;22.65;5.93;;;14.20;99.90;;;;;;4935580;29;20472;-72
2022/08/27 04:30:22;;;;;;;17.40;5.75;;;14.10;99.90;;;;;;4937430;29;20105;-72
2022/08/27 04:32:48;;;;;;;16.60;5.50;;;14.10;99.90;;;;;;4937173;29;20400;-72
2022/08/27 04:35:13;;;;;;;16.45;5.35;;;14.10;99.90;;;;;;4937558;29;20047;-72
2022/08/27 04:37:39;;;;;;;14.15;5.57;;;14.10;99.90;;;;;;4953806;29;20066;-72
2022/08/27 04:40:06;;;;;;;17.55;5.70;;;14.20;99.90;;;;;;4936683;29;20082;-71
2022/08/27 04:42:31;;;;;;;16.23;5.90;;;14.20;99.90;;;;;;4920164;29;20106;-72
2022/08/27 04:44:57;;;;;;;12.02;5.60;;;14.30;99.90;;;;;;4905111;29;20059;-74
2022/08/27 04:47:23;;;;;;;18.67;6.38;;;14.40;99.90;;;;;;4954562;29;20484;-72
2022/08/27 04:49:49;;;;;;;19.30;5.75;;;14.40;99.90;;;;;;4935885;29;20062;-70
2022/08/27 04:52:14;;;;;;;16.05;5.50;;;14.40;99.90;;;;;;4936617;29;20105;-70
2022/08/27 04:54:40;;;;;;;15.20;4.88;;;14.40;99.90;;;;;;4936154;29;20078;-71
2022/08/27 04:57:06;;;;;;;15.00;5.55;;;14.40;99.90;;;;;;4953260;29;20051;-71
2022/08/27 04:59:34;;;;;;;16.83;5.50;;;14.50;99.90;;;;;;4951702;29;20047;-73
2022/08/27 05:02:01;;;;;;;15.25;4.80;;;14.50;99.90;;;;;;4936037;29;20906;-72
2022/08/27 05:04:29;;;;;;;14.10;5.18;;;14.50;99.90;;;;;;4953341;28;20047;-72
2022/08/27 05:06:55;;;;;;;16.35;5.38;;;14.60;99.90;;;;;;4954077;29;20125;-72
2022/08/27 05:09:21;;;;;;;12.68;5.20;;;14.70;99.90;;;;;;4935678;29;20055;-72
2022/08/27 05:11:46;;;;;;;17.15;4.82;;;14.70;99.90;;;;;;4936855;29;20055;-72
2022/08/27 05:14:15;;;;;;;15.02;4.47;;;14.70;99.90;;;;;;4955478;29;20047;-72
2022/08/27 05:16:41;;;;;;;19.02;5.20;;;14.80;99.90;;;;;;4953273;29;20043;-73
2022/08/27 05:19:13;;;;;;;17.75;6.03;;;14.80;99.90;;;;;;4951932;29;20086;-72
2022/08/27 05:21:45;;;;;;;12.48;5.70;;;14.80;99.90;;;;;;4953058;28;20102;-71
2022/08/27 05:24:11;;;;;;;18.50;6.00;;;14.80;99.90;;;;;;4935907;29;20055;-72
2022/08/27 05:26:37;;;;;;;17.75;6.05;;;14.80;99.90;;;;;;4920292;29;20062;-73
2022/08/27 05:29:05;;;;;;;15.77;5.20;;;14.90;99.90;;;;;;4952367;29;20054;-72
2022/08/27 05:31:31;;;;;;;16.20;5.43;;;14.90;99.90;;;;;;4952862;28;20114;-72
2022/08/27 05:33:57;;;;;;;17.30;6.40;;;14.90;99.90;;;;;;4935517;29;20058;-73
2022/08/27 05:36:26;;;;;;;15.63;5.85;;;14.90;99.90;;;;;;4935460;29;20047;-73
2022/08/27 05:38:53;;;;;;;18.80;5.70;;;14.90;99.90;;;;;;4934967;29;20872;-76
2022/08/27 05:41:28;;;;;;;16.42;5.28;;;14.90;99.90;;;;;;4934176;29;20134;-72
2022/08/27 05:43:58;;;;;;;15.35;6.30;;;14.90;99.90;;;;;;4934594;29;20039;-72
2022/08/27 05:46:25;;;;;;;16.17;5.85;;;14.90;99.90;;;;;;4935768;29;20374;-73
2022/08/27 05:48:54;;;;;;;16.48;5.40;;;14.90;99.90;;;;;;4935759;29;20054;-72
2022/08/27 05:51:21;;;;;;;16.63;5.47;;;14.90;99.90;;;;;;4952639;29;20171;-76
2022/08/27 05:53:47;;;;;;;;;;;15.00;99.90;;;;;;4935265;29;20118;-72
2022/08/27 05:56:19;;;;;;;19.53;5.93;;;14.90;99.90;;;;;;4951847;29;19998;-71
2022/08/27 06:01:34;;;;;;;12.05;5.57;;;15.10;99.90;;;;;;4932214;29;20059;-73
2022/08/27 06:03:59;;;;;;;15.55;5.85;;;15.10;99.90;;;;;;4934593;29;20051;-73
2022/08/27 06:06:25;;;;;;;15.02;5.55;;;15.20;99.90;;;;;;4953058;29;20062;-72
2022/08/27 06:08:52;;;;;;;14.40;5.20;;;15.30;99.90;;;;;;4918940;29;20054;-73
2022/08/27 06:11:18;;;;;;;15.15;5.60;;;15.30;99.90;;;;;;4953081;29;20154;-72
2022/08/27 06:13:45;;;;;;;12.52;5.43;;;15.30;99.90;;;;;;4950728;29;20078;-74
2022/08/27 06:16:15;;;;;;;17.42;5.35;;;15.20;99.90;;;;;;4954361;28;20126;-74
2022/08/27 06:18:44;;;;;;;18.25;5.35;;;15.20;99.90;;;;;;4955848;29;20556;-72
2022/08/27 06:21:11;;;;;;;17.50;5.30;;;15.20;99.90;;;;;;4956690;28;20098;-72
2022/08/27 06:23:37;;;;;;;14.30;5.20;;;15.20;99.90;;;;;;4955192;29;20043;-73
2022/08/27 06:26:09;;;;;;;17.35;5.43;;;15.30;99.90;;;;;;4939441;29;20134;-72
2022/08/27 06:28:35;;;;;;;14.57;5.45;;;15.30;99.90;;;;;;4922285;29;20087;-70
2022/08/27 06:31:06;;;;;;;17.75;5.13;;;15.40;99.90;;;;;;4956271;29;20130;-71
2022/08/27 06:33:33;;;;;;;14.90;4.28;;;15.40;99.90;;;;;;4922431;28;20496;-79
2022/08/27 06:36:04;;;;;;;16.05;5.07;;;15.50;99.90;;;;;;4954462;29;20307;-71
2022/08/27 06:38:31;;;;;;;18.52;4.97;;;15.60;99.90;;;;;;4955880;29;20051;-72
2022/08/27 06:40:57;;;;;;;18.98;4.90;;;15.70;99.90;;;;;;4938292;29;20047;-72
2022/08/27 06:43:23;;;;;;;12.77;4.07;;;15.80;99.90;;;;;;4955636;29;20424;-75
2022/08/27 06:45:49;;;;;;;12.73;4.17;;;15.80;99.90;;;;;;4937360;29;20058;-73
2022/08/27 06:48:16;;;;;;;10.98;3.90;;;15.90;99.90;;;;;;4937287;29;20303;-72
2022/08/27 06:50:43;;;;;;;14.10;4.85;;;16.00;99.90;;;;;;4955959;29;20047;-80
2022/08/27 06:53:09;;;;;;;11.43;4.00;;;16.20;99.90;;;;;;4955666;29;20105;-76
2022/08/27 06:55:46;;;;;;;15.07;4.27;;;16.20;99.90;;;;;;4938012;29;20122;-72
2022/08/27 06:58:13;;;;;;;12.00;4.15;;;16.30;99.90;;;;;;4955246;29;20392;-72
2022/08/27 07:00:39;;;;;;;13.18;4.18;;;16.50;99.90;;;;;;4955211;28;20527;-70
2022/08/27 07:03:05;;;;;;;13.35;3.58;;;16.60;99.90;;;;;;4938340;29;20079;-72
2022/08/27 07:05:33;;;;;;;15.73;3.60;;;16.60;99.90;;;;;;4954372;29;20141;-72
2022/08/27 07:07:59;;;;;;;9.43;3.63;;;16.70;99.90;;;;;;4955075;29;20069;-72
2022/08/27 07:10:26;;;;;;;14.77;3.83;;;16.80;99.90;;;;;;4924049;29;20044;-72
2022/08/27 07:12:51;;;;;;;12.20;3.63;;;16.90;99.90;;;;;;4956141;29;20480;-71
2022/08/27 07:15:17;;;;;;;13.25;3.53;;;17.00;99.90;;;;;;4955518;29;20310;-69
2022/08/27 07:17:43;;;;;;;11.90;3.55;;;17.20;99.90;;;;;;4955073;28;20122;-79
2022/08/27 07:20:10;;;;;;;15.75;4.35;;;17.40;99.90;;;;;;4938239;29;20119;-74
2022/08/27 07:22:39;;;;;;;8.90;2.70;;;17.40;99.90;;;;;;4955742;29;20546;-73
2022/08/27 07:25:06;;;;;;;13.00;3.33;;;17.50;99.90;;;;;;4953612;29;20047;-73
2022/08/27 07:27:32;;;;;;;9.85;3.10;;;17.80;99.90;;;;;;4949272;28;20047;-73
2022/08/27 07:29:58;;;;;;;9.18;3.13;;;18.00;99.90;;;;;;4935211;29;20047;-73
2022/08/27 07:32:24;;;;;;;11.87;3.10;;;18.10;99.90;;;;;;4919789;29;20134;-72
2022/08/27 07:34:50;;;;;;;13.25;2.90;;;18.00;99.90;;;;;;4935630;28;20302;-74
2022/08/27 07:37:16;;;;;;;11.97;3.00;;;18.00;99.90;;;;;;4938431;29;20439;-70
2022/08/27 07:39:42;;;;;;;11.63;2.55;;;18.20;99.90;;;;;;4954606;28;20307;-70
2022/08/27 07:44:52;;;;;;;16.63;3.28;;;18.20;99.90;;;;;;4954145;29;20506;-72
2022/08/27 07:47:17;;;;;;;14.53;3.27;;;18.30;99.90;;;;;;4937900;29;20043;-71
2022/08/27 07:49:43;;;;;;;11.23;2.73;;;18.30;99.90;;;;;;4922492;29;20051;-72
2022/08/27 07:52:09;;;;;;;13.03;3.40;;;18.30;99.90;;;;;;4955378;29;20106;-71
2022/08/27 07:54:35;;;;;;;15.57;3.20;;;18.40;99.90;;;;;;4954479;28;20047;-72
2022/08/27 07:57:02;;;;;;;13.63;3.03;;;18.40;99.90;;;;;;4952993;29;20067;-72
2022/08/27 07:59:28;;;;;;;12.10;2.97;;;18.40;99.90;;;;;;4937238;29;20055;-73
2022/08/27 08:01:55;;;;;;;21.07;3.10;;;18.50;99.90;;;;;;4938277;29;20102;-73
2022/08/27 08:04:21;;;;;;;9.40;2.60;;;18.50;99.90;;;;;;4939054;29;20131;-75
2022/08/27 08:06:48;;;;;;;13.50;2.60;;;18.60;99.90;;;;;;4921589;28;20139;-80
2022/08/27 08:09:13;;;;;;;13.23;2.90;;;18.60;99.90;;;;;;4936213;29;20127;-72
2022/08/27 08:11:40;;;;;;;15.47;3.10;;;18.80;99.90;;;;;;4955178;29;20079;-71
2022/08/27 08:14:05;;;;;;;9.25;2.45;;;18.70;99.90;;;;;;4905117;29;20051;-71
2022/08/27 08:16:31;;;;;;;12.07;1.93;;;18.80;99.90;;;;;;4904641;29;20047;-71
2022/08/27 08:18:59;;;;;;;13.43;1.93;;;19.00;99.90;;;;;;4933679;28;20122;-75
2022/08/27 08:21:25;;;;;;;12.50;1.70;;;19.10;99.90;;;;;;4922121;29;20044;-71
2022/08/27 08:23:51;;;;;;;9.98;1.40;;;19.20;99.90;;;;;;4905911;29;20492;-73
2022/08/27 08:26:17;;;;;;;9.87;1.53;;;19.40;99.90;;;;;;4938643;29;20062;-70
2022/08/27 08:28:43;;;;;;;9.50;1.60;;;19.50;99.90;;;;;;4936215;29;20102;-76
2022/08/27 08:31:09;;;;;;;18.30;1.97;;;19.70;99.90;;;;;;4939209;29;20055;-73
2022/08/27 08:33:35;;;;;;;14.97;2.03;;;19.90;99.90;;;;;;4954841;29;20046;-73
2022/08/27 08:36:07;;;;;;;12.63;1.77;;;19.80;99.90;;;;;;4937369;29;20047;-76
2022/08/27 08:38:33;;;;;;;10.88;1.70;;;19.90;99.90;;;;;;4953429;28;20062;-71
2022/08/27 08:40:59;;;;;;;15.17;2.00;;;19.90;99.90;;;;;;4954234;29;20051;-72
2022/08/27 08:43:40;;;;;;;20.50;2.80;;;19.80;99.90;;;;;;4952494;28;20086;-72
2022/08/27 08:46:24;;;;;;;13.85;2.13;;;19.50;99.90;;;;;;4954246;29;20047;-70
2022/08/27 08:48:54;;;;;;;15.02;2.10;;;19.50;99.90;;;;;;4953954;29;20071;-78
2022/08/27 08:51:28;;;;;;;12.77;1.95;;;19.40;99.90;;;;;;4953920;29;20090;-71
2022/08/27 08:54:00;;;;;;;11.45;1.73;;;19.40;99.90;;;;;;4936697;29;20043;-71
2022/08/27 08:56:34;;;;;;;14.77;2.22;;;19.50;99.90;;;;;;4936303;29;20488;-74
2022/08/27 08:59:13;;;;;;;13.00;1.80;;;19.50;99.90;;;;;;4952156;29;20063;-72
2022/08/27 09:01:39;;;;;;;12.63;1.95;;;19.60;99.90;;;;;;4936987;29;20530;-71
2022/08/27 09:04:09;;;;;;;14.93;2.27;;;19.70;99.90;;;;;;4937855;29;20393;-70
2022/08/27 09:07:02;;;;;;;12.93;2.00;;;19.60;99.90;;;;;;4956073;28;21537;-71
2022/08/27 09:09:57;;;;;;;15.43;2.25;;;19.60;99.90;;;;;;4955076;29;20062;-70
2022/08/27 09:12:31;;;;;;;10.27;1.63;;;19.50;99.90;;;;;;4947493;28;20050;-73
2022/08/27 09:15:08;;;;;;;11.73;1.75;;;19.80;99.90;;;;;;4954189;29;20051;-74
2022/08/27 09:17:34;;;;;;;10.35;1.60;;;19.80;99.90;;;;;;4955864;29;20043;-73
2022/08/27 09:20:00;;;;;;;11.90;1.73;;;19.90;99.90;;;;;;4938385;29;20134;-72
2022/08/27 09:22:33;;;;;;;9.73;1.48;;;20.10;99.90;;;;;;4958622;29;20592;-72
2022/08/27 09:25:30;;;;;;;10.27;1.45;;;20.40;99.90;;;;;;4925798;29;20059;-71
2022/08/27 09:28:00;;;;;;;4.85;1.33;;;20.60;99.90;;;;;;4957233;28;20456;-73
2022/08/27 09:30:39;;;;;;;8.50;1.20;;;20.80;99.90;;;;;;4943730;29;20062;-73
2022/08/27 09:33:05;;;;;;;13.85;1.67;;;20.90;99.90;;;;;;4956801;29;20040;-73
2022/08/27 09:35:43;;;;;;;6.37;1.10;;;20.90;99.90;;;;;;4956567;28;20051;-71
2022/08/27 09:38:12;;;;;;;10.77;1.30;;;21.00;99.90;;;;;;4925832;29;20078;-73
2022/08/27 09:40:45;;;;;;;17.45;2.15;;;21.10;99.90;;;;;;4939890;29;20400;-71
2022/08/27 09:43:21;;;;;;;13.93;1.85;;;20.90;99.90;;;;;;4953408;29;20054;-75
2022/08/27 09:45:55;;;;;;;15.32;1.70;;;20.60;99.90;;;;;;4936582;29;20444;-71
2022/08/27 09:48:25;;;;;;;15.73;2.50;;;20.80;99.90;;;;;;4937154;29;20149;-75
2022/08/27 09:50:58;;;;;;;13.25;2.00;;;20.60;99.90;;;;;;4951596;28;20047;-75
2022/08/27 09:53:55;;;;;;;13.57;1.60;;;20.60;99.90;;;;;;4920563;29;20419;-72
2022/08/27 09:56:45;;;;;;;17.73;2.08;;;20.70;99.90;;;;;;4937122;29;20070;-75
2022/08/27 09:59:23;;;;;;;13.90;1.77;;;20.70;99.90;;;;;;4951433;28;20062;-75
2022/08/27 10:02:14;;;;;;;20.77;2.03;;;20.50;99.90;;;;;;4935730;29;20154;-73
2022/08/27 10:04:47;;;;;;;12.20;1.60;;;20.80;99.90;;;;;;4914488;29;20063;-72
2022/08/27 10:07:38;;;;;;;12.35;2.25;;;20.70;99.90;;;;;;4951468;29;20043;-74
2022/08/27 10:10:28;;;;;;;15.38;1.67;;;20.80;99.90;;;;;;4943833;28;20162;-71
2022/08/27 10:13:12;;;;;;;13.60;2.08;;;21.00;99.90;;;;;;4934315;29;20054;-73
2022/08/27 10:16:04;;;;;;;15.07;1.80;;;20.70;99.90;;;;;;4920103;28;20238;-74
2022/08/27 10:18:37;;;;;;;15.27;1.58;;;20.80;99.90;;;;;;4953916;29;20451;-74
2022/08/27 10:21:12;;;;;;;15.88;1.65;;;20.90;99.90;;;;;;4954300;29;20058;-72
2022/08/27 10:23:46;;;;;;;14.82;1.80;;;21.00;99.90;;;;;;4953546;29;20051;-71
2022/08/27 10:26:39;;;;;;;17.05;1.95;;;20.90;99.90;;;;;;4917678;29;20142;-72
2022/08/27 10:29:48;;;;;;;17.02;1.80;;;20.90;99.90;;;;;;4950535;28;20055;-73
2022/08/27 10:32:40;;;;;;;14.00;1.20;;;20.90;99.90;;;;;;4877724;29;20164;-73
2022/08/27 10:35:20;;;;;;;19.00;1.85;;;20.90;99.90;;;;;;4952211;29;20130;-73
2022/08/27 10:37:46;;;;;;;21.88;1.80;;;20.70;99.90;;;;;;4934702;29;20055;-77
2022/08/27 10:40:26;;;;;;;16.47;1.50;;;20.70;99.90;;;;;;4935178;29;20404;-71
2022/08/27 10:43:07;;;;;;;16.90;1.80;;;20.50;99.90;;;;;;4951633;29;20094;-73
2022/08/27 10:45:41;;;;;;;13.65;1.48;;;20.80;99.90;;;;;;4935888;29;20051;-72
2022/08/27 10:48:23;;;;;;;13.48;1.80;;;21.10;99.90;;;;;;4934260;29;20082;-73
2022/08/27 10:51:00;;;;;;;19.30;1.60;;;21.20;99.90;;;;;;4934643;29;20448;-74
2022/08/27 10:53:40;;;;;;;15.00;1.10;;;21.00;99.90;;;;;;4934804;29;20083;-72
2022/08/27 10:56:15;;;;;;;9.93;1.08;;;21.00;99.90;;;;;;4934979;29;20070;-72
2022/08/27 10:58:50;;;;;;;19.38;1.30;;;21.10;99.90;;;;;;4930470;29;20102;-71
2022/08/27 11:01:35;;;;;;;14.15;1.50;;;;;;;;;;4933609;29;20107;-72
2022/08/27 11:04:09;;;;;;;14.07;1.30;;;21.20;99.30;;;;;;4936661;29;20058;-74
2022/08/27 11:06:41;;;;;;;13.38;1.15;;;21.60;99.90;;;;;;4949477;28;20119;-73
2022/08/27 11:09:12;;;;;;;14.63;1.38;;;21.90;99.20;;;;;;4935094;29;20051;-74
2022/08/27 11:11:42;;;;;;;12.20;1.75;;;21.90;98.70;;;;;;4936438;29;20044;-71
2022/08/27 11:14:18;;;;;;;18.55;2.33;;;21.90;98.70;;;;;;4935363;29;20048;-71
2022/08/27 11:16:47;;;;;;;10.85;1.15;;;22.20;99.10;;;;;;4935075;29;20449;-79
2022/08/27 11:19:49;;;;;;;12.65;1.60;;;22.50;98.60;;;;;;4934385;29;20079;-72
2022/08/27 11:22:36;;;;;;;15.98;3.20;;;22.70;97.40;;;;;;4948791;29;20082;-77
2022/08/27 11:25:14;;;;;;;23.90;4.82;;;22.80;97.60;;;;;;4936487;29;20044;-76
2022/08/27 11:27:41;;;;;;;13.23;3.25;;;22.00;98.20;;;;;;4937528;29;20059;-72
2022/08/27 11:30:24;;;;;;;17.02;3.30;;;22.40;97.30;;;;;;4935575;29;20059;-80
2022/08/27 11:32:53;;;;;;;12.63;1.55;;;22.00;97.70;;;;;;4935804;29;20071;-74
2022/08/27 11:35:48;;;;;;;15.30;1.60;;;21.70;97.60;;;;;;4936412;29;20059;-79
2022/08/27 11:38:57;;;;;;;14.85;1.50;;;21.70;97.80;;;;;;4935147;29;20055;-74
2022/08/27 11:41:38;;;;;;;18.92;2.83;;;21.50;98.80;;;;;;4936788;29;20483;-73
2022/08/27 11:44:04;;;;;;;19.52;2.60;;;21.80;98.20;;;;;;4935267;29;20051;-74
2022/08/27 11:46:45;;;;;;;17.47;1.87;;;22.10;98.30;;;;;;4935006;29;20055;-73
2022/08/27 11:49:34;;;;;;;13.68;1.60;;;22.00;96.90;;;;;;4934960;29;20443;-74
2022/08/27 11:52:08;;;;;;;15.82;1.90;;;22.10;96.50;;;;;;4917570;29;20103;-73
2022/08/27 11:54:46;;;;;;;10.20;1.58;;;22.20;96.20;;;;;;4916385;29;20123;-74
2022/08/27 11:57:36;;;;;;;14.60;1.70;;;22.20;96.10;;;;;;4918942;29;20044;-73
2022/08/27 12:00:17;;;;;;;17.70;1.52;;;22.10;96.70;;;;;;4935426;29;20086;-80
2022/08/27 12:02:43;;;;;;;11.43;1.38;;;22.30;95.60;;;;;;4936125;29;20047;-73
2022/08/27 12:05:18;;;;;;;15.47;1.77;;;22.00;95.50;;;;;;4947866;28;20077;-80
2022/08/27 12:07:47;;;;;;;20.60;2.47;;;22.10;96.10;;;;;;4955359;29;20297;-78
2022/08/27 12:10:54;;;;;;;18.33;2.90;;;22.40;95.90;;;;;;4954404;29;20047;-76
2022/08/27 12:13:50;;;;;;;19.30;2.28;;;22.40;95.70;;;;;;4914378;29;20067;-73
2022/08/27 12:16:39;;;;;;;13.98;1.25;;;22.70;95.60;;;;;;4927960;29;20055;-73
2022/08/27 12:19:08;;;;;;;17.13;2.13;;;22.10;95.90;;;;;;4937957;29;20058;-76
2022/08/27 12:22:18;;;;;;;14.73;1.58;;;22.50;95.70;;;;;;4937972;29;20054;-74
2022/08/27 12:24:49;;;;;;;22.40;3.38;;;22.70;95.70;;;;;;4894565;29;20056;-72
2022/08/27 12:27:21;;;;;;;19.83;2.50;;;22.60;95.60;;;;;;4948132;29;20413;-74
2022/08/27 12:29:52;;;;;;;21.65;2.65;;;22.50;95.40;;;;;;4935588;29;20050;-75
2022/08/27 12:32:25;;;;;;;13.85;2.33;;;22.60;96.20;;;;;;4937763;29;20143;-72
2022/08/27 12:35:27;;;;;;;17.83;2.92;;;22.50;96.00;;;;;;4936634;28;20054;-72
2022/08/27 12:38:22;;;;;;;11.20;1.17;;;22.70;96.00;;;;;;4937008;29;20435;-73
2022/08/27 12:40:58;;;;;;;14.27;1.40;;;22.60;95.70;;;;;;4952823;29;20130;-74
2022/08/27 12:43:26;;;;;;;;;;;22.80;95.80;;;;;;4953276;29;20051;-74
2022/08/27 12:45:57;;;;;;;10.57;1.33;;;22.60;95.10;;;;;;4954870;29;19977;-75
2022/08/27 12:48:27;;;;;;;12.18;1.48;;;22.30;94.60;;;;;;4936851;29;20066;-74
2022/08/27 12:50:58;;;;;;;10.93;1.30;;;22.50;94.20;;;;;;4937361;29;20051;-73
2022/08/27 12:53:43;;;;;;;14.35;1.60;;;22.40;94.60;;;;;;4952244;29;20061;-74
2022/08/27 12:56:36;;;;;;;13.00;1.17;;;22.20;94.20;;;;;;4918469;29;20059;-73
2022/08/27 12:59:19;;;;;;;10.63;2.00;;;21.80;93.60;;;;;;4941468;29;20303;-72
2022/08/27 13:02:07;;;;;;;9.65;1.13;;;21.80;93.70;;;;;;4918630;29;20358;-71
2022/08/27 13:04:37;;;;;;;16.55;1.95;;;21.70;93.90;;;;;;4933048;29;20082;-72